Time;durP1;ratioP1;P1;durP2;ratioP2;P2;SDS_P1;SDS_P2;PMS_P1;PMS_P2;Temp;Humidity;BMP_temperature;BMP_pressure;BME280_temperature;BME280_humidity;BME280_pressure;Samples;Min_cycle;Max_cycle;Signal;HPM_P1;HPM_P2
2021/04/13 00:01:10;;;;;;;1.42;1.33;;;4.20;99.90;;;;;;5008939;28;20270;-74
2021/04/13 00:04:10;;;;;;;3.38;3.10;;;4.30;99.90;;;;;;4986375;28;20280;-76
2021/04/13 00:06:40;;;;;;;0.45;0.45;;;4.30;99.90;;;;;;5001668;28;20209;-76
2021/04/13 00:09:24;;;;;;;3.95;2.38;;;4.40;99.90;;;;;;5003043;28;20212;-74
2021/04/13 00:11:55;;;;;;;1.85;1.75;;;4.30;99.90;;;;;;5001033;28;20227;-74
2021/04/13 00:14:33;;;;;;;2.95;2.38;;;4.40;99.90;;;;;;4971415;28;20581;-76
2021/04/13 00:17:03;;;;;;;2.78;2.58;;;4.30;99.90;;;;;;4982326;28;20216;-76
2021/04/13 00:19:41;;;;;;;2.78;1.73;;;4.10;99.90;;;;;;4974808;28;20279;-75
2021/04/13 00:22:08;;;;;;;1.67;1.58;;;4.10;99.90;;;;;;5000214;28;20227;-76
2021/04/13 00:24:35;;;;;;;2.03;1.05;;;4.10;99.90;;;;;;4990566;28;20431;-76
2021/04/13 00:27:02;;;;;;;1.98;1.67;;;4.00;99.90;;;;;;5000502;28;20216;-76
2021/04/13 00:29:31;;;;;;;1.00;0.93;;;4.00;99.90;;;;;;5001385;28;20212;-75
2021/04/13 00:32:01;;;;;;;3.97;2.42;;;4.00;99.90;;;;;;4993378;28;20209;-75
2021/04/13 00:34:57;;;;;;;1.90;1.80;;;4.00;99.90;;;;;;4985784;28;20259;-78
2021/04/13 00:37:29;;;;;;;1.67;1.58;;;3.90;99.90;;;;;;5000942;28;20386;-76
2021/04/13 00:40:13;;;;;;;1.75;1.65;;;3.90;99.90;;;;;;4987793;28;20216;-76
2021/04/13 00:42:40;;;;;;;1.15;1.05;;;4.00;99.90;;;;;;4999760;28;20212;-75
2021/04/13 00:45:13;;;;;;;2.35;1.55;;;4.10;99.90;;;;;;5000335;28;20208;-77
2021/04/13 00:47:42;;;;;;;1.65;1.65;;;3.90;99.90;;;;;;4992525;28;20217;-75
2021/04/13 00:50:32;;;;;;;1.35;1.00;;;3.80;99.90;;;;;;5000016;28;20250;-75
2021/04/13 00:53:01;;;;;;;2.08;1.90;;;3.80;99.90;;;;;;5000414;28;20229;-76
2021/04/13 00:55:36;;;;;;;1.15;0.75;;;3.80;99.90;;;;;;5010351;28;20776;-75
2021/04/13 00:58:14;;;;;;;2.35;1.20;;;3.80;99.90;;;;;;5011012;28;20224;-74
2021/04/13 01:00:47;;;;;;;2.92;1.95;;;3.80;99.90;;;;;;5004244;28;20211;-74
2021/04/13 01:03:16;;;;;;;2.42;2.22;;;3.80;99.90;;;;;;5004606;28;20212;-74
2021/04/13 01:05:46;;;;;;;1.63;1.27;;;3.70;99.90;;;;;;5010375;28;20212;-73
2021/04/13 01:08:21;;;;;;;1.52;1.15;;;3.70;99.90;;;;;;5010935;28;20232;-73
2021/04/13 01:10:49;;;;;;;4.50;2.03;;;3.70;99.90;;;;;;4999244;28;20228;-73
2021/04/13 01:13:20;;;;;;;1.25;1.20;;;3.60;99.90;;;;;;5010171;28;20222;-74
2021/04/13 01:15:50;;;;;;;0.98;0.85;;;3.70;99.90;;;;;;4998902;28;20271;-76
2021/04/13 01:18:24;;;;;;;0.50;0.50;;;3.70;99.90;;;;;;5009369;28;20211;-76
2021/04/13 01:21:16;;;;;;;1.40;0.95;;;3.60;99.90;;;;;;5002238;28;20500;-76
2021/04/13 01:23:51;;;;;;;0.85;0.85;;;3.50;99.90;;;;;;5001094;28;20271;-78
2021/04/13 01:26:18;;;;;;;1.88;1.77;;;3.40;99.90;;;;;;4996505;28;20212;-77
2021/04/13 01:28:46;;;;;;;2.05;1.52;;;3.40;99.90;;;;;;4998610;28;20212;-76
2021/04/13 01:31:13;;;;;;;1.10;1.10;;;3.40;99.90;;;;;;4999234;28;20524;-76
2021/04/13 01:33:50;;;;;;;8.13;2.47;;;3.30;99.90;;;;;;5012423;28;20210;-76
2021/04/13 01:36:29;;;;;;;1.20;1.15;;;3.20;99.90;;;;;;4981677;28;20565;-77
2021/04/13 01:39:20;;;;;;;1.08;0.95;;;3.20;99.90;;;;;;4980438;28;20215;-78
2021/04/13 01:44:41;;;;;;;2.90;1.75;;;3.30;99.90;;;;;;4998852;28;20231;-75
2021/04/13 01:47:11;;;;;;;1.63;1.52;;;3.40;99.90;;;;;;4986107;28;20207;-80
2021/04/13 01:49:46;;;;;;;1.55;1.00;;;3.40;99.90;;;;;;4993038;28;20212;-74
2021/04/13 01:52:27;;;;;;;2.55;2.35;;;3.20;99.90;;;;;;4992114;28;20253;-72
2021/04/13 01:54:54;;;;;;;1.33;1.23;;;3.10;99.90;;;;;;4995152;28;20347;-71
2021/04/13 01:57:34;;;;;;;0.40;0.40;;;3.20;99.90;;;;;;4994846;28;20410;-71
2021/04/13 02:00:13;;;;;;;1.98;1.77;;;3.30;99.90;;;;;;4994773;28;20230;-71
2021/04/13 02:02:50;;;;;;;0.60;0.60;;;3.50;99.90;;;;;;5004053;28;20499;-71
2021/04/13 02:05:23;;;;;;;0.80;0.75;;;3.70;99.90;;;;;;4998467;28;20211;-73
2021/04/13 02:07:59;;;;;;;1.40;1.30;;;3.60;99.90;;;;;;5007607;28;20230;-71
2021/04/13 02:10:40;;;;;;;0.40;0.40;;;3.50;99.90;;;;;;5005340;28;20211;-70
2021/04/13 02:13:22;;;;;;;2.67;1.30;;;3.50;99.90;;;;;;5000459;28;20215;-70
2021/04/13 02:16:10;;;;;;;1.38;0.90;;;3.50;99.90;;;;;;4990387;28;20227;-69
2021/04/13 02:18:49;;;;;;;1.08;1.02;;;3.60;99.90;;;;;;4998882;28;20210;-70
2021/04/13 02:21:29;;;;;;;2.05;0.93;;;3.50;99.90;;;;;;5003365;28;20363;-70
2021/04/13 02:24:03;;;;;;;3.42;3.17;;;3.70;99.90;;;;;;4998182;28;20234;-69
2021/04/13 02:26:31;;;;;;;1.92;1.20;;;4.00;99.90;;;;;;5003186;28;20215;-70
2021/04/13 02:28:58;;;;;;;2.53;2.33;;;3.90;99.90;;;;;;4998135;28;20259;-71
2021/04/13 02:31:36;;;;;;;1.30;1.30;;;4.00;99.90;;;;;;5001696;28;20215;-70
2021/04/13 02:34:30;;;;;;;5.10;3.00;;;3.90;99.90;;;;;;4995234;28;20215;-70
2021/04/13 02:37:01;;;;;;;2.55;1.55;;;3.90;99.90;;;;;;4982408;28;20219;-69
2021/04/13 02:39:31;;;;;;;2.00;1.77;;;3.60;99.90;;;;;;4986027;28;20212;-69
2021/04/13 02:42:14;;;;;;;1.15;1.10;;;3.60;99.90;;;;;;4997674;28;20211;-70
2021/04/13 02:44:42;;;;;;;1.60;1.50;;;3.40;99.90;;;;;;4986403;28;20212;-68
2021/04/13 02:47:12;;;;;;;1.13;1.13;;;3.30;99.90;;;;;;4991922;28;20403;-69
2021/04/13 02:49:41;;;;;;;0.50;0.50;;;3.30;99.90;;;;;;4989031;28;20311;-67
2021/04/13 02:52:18;;;;;;;0.80;0.80;;;3.20;99.90;;;;;;4981082;28;20235;-68
2021/04/13 02:54:50;;;;;;;1.83;1.73;;;3.30;99.90;;;;;;4978641;28;20283;-68
2021/04/13 02:57:22;;;;;;;1.50;1.40;;;3.40;99.90;;;;;;4990337;28;20215;-69
2021/04/13 02:59:50;;;;;;;5.30;1.45;;;3.30;99.90;;;;;;4988537;28;20211;-67
2021/04/13 03:02:39;;;;;;;2.60;1.23;;;3.30;99.90;;;;;;5001390;28;20274;-68
2021/04/13 03:05:07;;;;;;;1.08;0.82;;;3.20;99.90;;;;;;5001904;28;20262;-66
2021/04/13 03:07:39;;;;;;;1.48;0.57;;;3.20;99.90;;;;;;4987229;28;20238;-66
2021/04/13 03:10:14;;;;;;;0.82;0.82;;;3.10;99.90;;;;;;4973994;28;20575;-66
2021/04/13 03:12:45;;;;;;;0.55;0.55;;;3.00;99.90;;;;;;4995655;28;20218;-66
2021/04/13 03:15:17;;;;;;;0.95;0.68;;;2.90;99.90;;;;;;4991975;28;20722;-67
2021/04/13 03:17:48;;;;;;;1.30;1.25;;;2.90;99.90;;;;;;5000794;28;20421;-67
2021/04/13 03:20:19;;;;;;;1.10;0.73;;;2.90;99.90;;;;;;5001363;28;20302;-68
2021/04/13 03:22:48;;;;;;;0.50;0.50;;;3.00;99.90;;;;;;4987421;28;20505;-68
2021/04/13 03:25:15;;;;;;;1.15;1.05;;;2.90;99.90;;;;;;5010961;28;20231;-68
2021/04/13 03:27:42;;;;;;;0.75;0.75;;;2.90;99.90;;;;;;5004940;28;20206;-68
2021/04/13 03:30:15;;;;;;;2.15;1.30;;;2.80;99.90;;;;;;4987491;28;20212;-69
2021/04/13 03:32:55;;;;;;;0.73;0.73;;;2.90;99.90;;;;;;5006471;28;20233;-71
2021/04/13 03:35:25;;;;;;;0.65;0.65;;;3.10;99.90;;;;;;4988625;28;20238;-68
2021/04/13 03:37:56;;;;;;;0.77;0.77;;;3.10;99.90;;;;;;5001170;28;20221;-68
2021/04/13 03:40:29;;;;;;;1.60;1.50;;;3.10;99.90;;;;;;4997370;28;20263;-67
2021/04/13 03:43:02;;;;;;;0.80;0.80;;;3.10;99.90;;;;;;4996619;28;20211;-67
2021/04/13 03:45:31;;;;;;;1.70;1.58;;;2.90;99.90;;;;;;4988367;28;20505;-67
2021/04/13 03:48:06;;;;;;;1.60;1.17;;;3.00;99.90;;;;;;5001730;28;20211;-67
2021/04/13 03:50:39;;;;;;;0.60;0.60;;;3.10;99.90;;;;;;5000719;28;20246;-67
2021/04/13 03:53:14;;;;;;;0.40;0.40;;;3.10;99.90;;;;;;4987202;28;20214;-68
2021/04/13 03:55:57;;;;;;;1.60;1.45;;;3.10;99.90;;;;;;4987398;28;20245;-68
2021/04/13 03:58:25;;;;;;;4.80;1.33;;;3.20;99.90;;;;;;5000990;28;20510;-67
2021/04/13 04:00:53;;;;;;;0.70;0.70;;;3.10;99.90;;;;;;5013729;28;20231;-68
2021/04/13 04:03:20;;;;;;;1.05;1.05;;;3.00;99.90;;;;;;4979759;28;20211;-67
2021/04/13 04:05:52;;;;;;;2.80;2.63;;;3.10;99.90;;;;;;4987190;28;20556;-68
2021/04/13 04:08:42;;;;;;;0.40;0.40;;;3.10;99.90;;;;;;4996041;28;20231;-69
2021/04/13 04:11:09;;;;;;;1.10;1.10;;;3.10;99.90;;;;;;5002527;28;20208;-69
2021/04/13 04:13:49;;;;;;;0.95;0.95;;;3.20;99.90;;;;;;4999530;28;20449;-70
2021/04/13 04:16:29;;;;;;;1.33;1.23;;;3.30;99.90;;;;;;5014575;28;20222;-70
2021/04/13 04:19:09;;;;;;;1.52;0.98;;;3.30;99.90;;;;;;5007163;28;20268;-70
2021/04/13 04:21:41;;;;;;;1.25;1.25;;;3.70;99.90;;;;;;5011237;28;20222;-72
2021/04/13 04:24:26;;;;;;;1.10;1.10;;;4.00;99.90;;;;;;5003645;28;20486;-71
2021/04/13 04:27:05;;;;;;;1.50;1.40;;;4.00;99.90;;;;;;5006240;28;20216;-70
2021/04/13 04:29:44;;;;;;;0.70;0.70;;;4.10;99.90;;;;;;5008283;28;20198;-70
2021/04/13 04:32:34;;;;;;;2.05;1.95;;;4.30;99.90;;;;;;5002407;28;20216;-71
2021/04/13 04:35:05;;;;;;;1.20;0.93;;;4.50;99.90;;;;;;4995472;28;20235;-70
2021/04/13 04:37:33;;;;;;;1.35;1.25;;;4.60;99.90;;;;;;5010060;28;20219;-69
2021/04/13 04:40:27;;;;;;;2.53;1.40;;;4.60;99.90;;;;;;4988933;28;20214;-70
2021/04/13 04:43:00;;;;;;;0.50;0.47;;;4.80;99.90;;;;;;4996328;28;20197;-70
2021/04/13 04:45:31;;;;;;;1.48;1.38;;;4.90;99.90;;;;;;4970066;28;20466;-70
2021/04/13 04:47:59;;;;;;;1.15;1.02;;;5.00;99.90;;;;;;4986671;28;20217;-69
2021/04/13 04:50:26;;;;;;;2.08;1.75;;;5.20;99.90;;;;;;4997808;28;20316;-70
2021/04/13 04:52:52;;;;;;;3.58;2.17;;;5.30;99.90;;;;;;5001836;28;20213;-71
2021/04/13 04:55:19;;;;;;;1.58;1.52;;;5.30;99.90;;;;;;4990696;28;20578;-70
2021/04/13 04:57:46;;;;;;;2.60;1.73;;;5.30;99.90;;;;;;4995152;28;20217;-71
2021/04/13 05:00:12;;;;;;;1.98;1.60;;;5.50;99.90;;;;;;5001594;28;20292;-72
2021/04/13 05:02:39;;;;;;;2.03;1.90;;;5.60;99.90;;;;;;4984571;28;20217;-70
2021/04/13 05:05:06;;;;;;;1.85;1.50;;;5.70;99.90;;;;;;4981779;28;20522;-70
2021/04/13 05:07:33;;;;;;;1.48;1.38;;;5.80;99.90;;;;;;4995384;28;20243;-72
2021/04/13 05:09:59;;;;;;;1.25;1.05;;;5.80;99.90;;;;;;4989544;28;20214;-70
2021/04/13 05:12:26;;;;;;;1.42;1.25;;;5.80;99.90;;;;;;4999742;28;20220;-70
2021/04/13 05:14:52;;;;;;;1.15;1.05;;;5.90;99.90;;;;;;5000884;28;20232;-71
2021/04/13 05:17:19;;;;;;;1.98;1.83;;;6.00;99.90;;;;;;5004059;28;20208;-70
2021/04/13 05:19:45;;;;;;;1.25;1.15;;;6.10;99.90;;;;;;5002362;28;20413;-71
2021/04/13 05:22:12;;;;;;;1.50;1.10;;;6.20;99.90;;;;;;5001922;28;20228;-71
2021/04/13 05:24:39;;;;;;;2.05;1.42;;;6.00;99.90;;;;;;4999649;28;20423;-71
2021/04/13 05:27:07;;;;;;;0.98;0.98;;;6.00;99.90;;;;;;4977985;28;20216;-69
2021/04/13 05:29:33;;;;;;;1.77;1.67;;;6.20;99.90;;;;;;5000985;28;20266;-71
2021/04/13 05:32:00;;;;;;;1.20;1.05;;;6.30;99.90;;;;;;5002105;28;20215;-71
2021/04/13 05:34:27;;;;;;;1.42;1.40;;;6.50;99.90;;;;;;4991428;28;20210;-73
2021/04/13 05:36:55;;;;;;;3.63;0.80;;;6.50;99.90;;;;;;5004120;28;20204;-71
2021/04/13 05:39:23;;;;;;;2.65;1.58;;;6.30;99.30;;;;;;4998871;28;20204;-71
2021/04/13 05:41:52;;;;;;;1.35;1.30;;;6.20;99.60;;;;;;4992959;28;20213;-71
2021/04/13 05:44:20;;;;;;;1.38;1.30;;;6.10;99.90;;;;;;4992713;28;20271;-72
2021/04/13 05:46:48;;;;;;;0.98;0.98;;;6.10;99.50;;;;;;4995794;28;20216;-72
2021/04/13 05:49:14;;;;;;;0.93;0.93;;;6.20;99.30;;;;;;4989060;28;20213;-73
2021/04/13 05:51:41;;;;;;;2.78;1.75;;;6.40;99.20;;;;;;4995166;28;20245;-74
2021/04/13 05:54:08;;;;;;;1.23;0.98;;;6.20;99.30;;;;;;4966204;28;20219;-73
2021/04/13 05:56:37;;;;;;;1.75;1.25;;;6.40;98.90;;;;;;4996583;28;20295;-73
2021/04/13 05:59:06;;;;;;;1.13;1.05;;;6.60;98.70;;;;;;4993983;28;20285;-72
2021/04/13 06:01:34;;;;;;;1.15;1.05;;;6.80;99.20;;;;;;4991441;28;20471;-75
2021/04/13 06:04:04;;;;;;;0.80;0.80;;;6.80;98.50;;;;;;4937167;28;20218;-74
2021/04/13 06:06:31;;;;;;;0.95;0.95;;;6.90;99.10;;;;;;4977319;28;20226;-74
2021/04/13 06:08:58;;;;;;;1.70;1.25;;;7.10;98.20;;;;;;4963279;28;20233;-74
2021/04/13 06:11:30;;;;;;;0.98;0.90;;;7.00;98.00;;;;;;4953984;28;20216;-74
2021/04/13 06:14:02;;;;;;;1.63;1.50;;;7.10;98.20;;;;;;4968283;28;20210;-74
2021/04/13 06:16:39;;;;;;;3.30;2.22;;;7.40;97.80;;;;;;4986194;28;20233;-74
2021/04/13 06:19:11;;;;;;;1.40;1.30;;;7.50;97.00;;;;;;4981521;28;20241;-75
2021/04/13 06:21:41;;;;;;;1.73;1.55;;;8.10;96.30;;;;;;4989952;28;20304;-76
2021/04/13 06:24:10;;;;;;;1.30;0.75;;;8.20;95.30;;;;;;4998962;28;20224;-75
2021/04/13 06:26:37;;;;;;;1.60;1.50;;;8.20;95.10;;;;;;4987478;28;20428;-75
2021/04/13 06:29:05;;;;;;;0.85;0.85;;;8.40;95.00;;;;;;4997815;28;20416;-75
2021/04/13 06:31:32;;;;;;;0.82;0.75;;;8.50;95.40;;;;;;4997646;28;20229;-72
2021/04/13 06:33:58;;;;;;;1.00;0.98;;;8.50;95.50;;;;;;4979077;28;20245;-76
2021/04/13 06:36:27;;;;;;;1.92;1.83;;;8.50;96.00;;;;;;5000409;28;20240;-77
2021/04/13 06:38:56;;;;;;;1.67;1.58;;;8.20;95.60;;;;;;5003168;28;20765;-77
2021/04/13 06:42:03;;;;;;;1.95;1.85;;;8.10;96.00;;;;;;5003608;28;20819;-77
2021/04/13 06:44:52;;;;;;;1.15;1.05;;;8.10;97.00;;;;;;4982207;28;20240;-78
2021/04/13 06:47:34;;;;;;;2.08;1.88;;;8.20;96.40;;;;;;4969605;28;20201;-79
2021/04/13 06:50:03;;;;;;;2.40;2.20;;;8.10;95.50;;;;;;4979426;28;20225;-79
2021/04/13 06:52:40;;;;;;;2.90;1.50;;;8.10;95.70;;;;;;4980780;28;20551;-78
2021/04/13 06:55:35;;;;;;;1.17;1.17;;;8.10;95.20;;;;;;4982742;28;20296;-80
2021/04/13 06:58:39;;;;;;;1.48;1.38;;;8.20;95.90;;;;;;4985755;28;20201;-81
2021/04/13 07:02:08;;;;;;;1.73;1.63;;;8.30;96.50;;;;;;4987434;28;20245;-81
2021/04/13 07:04:50;;;;;;;2.78;2.15;;;8.20;96.50;;;;;;4938134;28;20228;-82
2021/04/13 07:07:20;;;;;;;2.97;1.80;;;8.30;95.80;;;;;;4980531;28;20297;-81
2021/04/13 07:09:59;;;;;;;3.08;1.58;;;8.40;95.50;;;;;;4981044;28;20236;-77
2021/04/13 07:12:54;;;;;;;0.98;0.98;;;8.00;95.60;;;;;;4980377;28;20214;-80
2021/04/13 07:15:28;;;;;;;1.92;1.20;;;7.70;96.10;;;;;;4977335;28;20513;-79
2021/04/13 07:18:05;;;;;;;1.00;0.98;;;7.50;96.40;;;;;;4962084;28;20252;-78
2021/04/13 07:20:55;;;;;;;1.95;1.85;;;7.40;96.60;;;;;;4957854;28;20308;-79
2021/04/13 07:23:32;;;;;;;1.95;1.48;;;7.50;96.50;;;;;;4978850;28;20217;-78
2021/04/13 07:26:05;;;;;;;1.33;1.23;;;7.70;96.40;;;;;;4978398;28;20210;-76
2021/04/13 07:28:40;;;;;;;2.85;1.35;;;8.00;96.70;;;;;;4979980;28;20213;-76
2021/04/13 07:31:18;;;;;;;1.58;1.45;;;8.10;95.90;;;;;;4987336;28;20214;-75
2021/04/13 07:33:45;;;;;;;1.60;1.50;;;8.30;95.20;;;;;;4997214;28;20217;-76
2021/04/13 07:36:58;;;;;;;1.20;1.15;;;8.40;95.20;;;;;;4989033;28;20225;-77
2021/04/13 07:39:27;;;;;;;3.08;2.05;;;8.50;95.20;;;;;;4959255;28;20209;-74
2021/04/13 07:42:06;;;;;;;1.65;1.55;;;8.60;93.30;;;;;;4989175;28;20214;-75
2021/04/13 07:44:49;;;;;;;2.75;1.98;;;8.30;93.20;;;;;;4991008;28;20204;-73
2021/04/13 07:47:29;;;;;;;2.60;2.20;;;8.30;93.50;;;;;;5003971;28;20232;-74
2021/04/13 07:49:59;;;;;;;2.00;1.90;;;8.20;94.20;;;;;;4999034;28;20210;-72
2021/04/13 07:52:41;;;;;;;1.00;0.98;;;8.20;94.00;;;;;;4985817;28;20225;-73
2021/04/13 07:55:22;;;;;;;2.33;2.13;;;8.40;93.70;;;;;;5003056;28;20292;-72
2021/04/13 07:58:06;;;;;;;2.97;2.50;;;8.60;93.50;;;;;;4997165;28;20518;-72
2021/04/13 08:00:44;;;;;;;1.00;0.98;;;8.90;92.90;;;;;;5004762;28;20522;-72
2021/04/13 08:03:14;;;;;;;2.65;2.45;;;8.90;92.60;;;;;;5004289;28;20241;-72
2021/04/13 08:05:47;;;;;;;1.75;1.65;;;8.90;93.10;;;;;;5010469;28;20411;-73
2021/04/13 08:08:38;;;;;;;2.17;1.95;;;8.90;92.70;;;;;;4980914;28;20268;-72
2021/04/13 08:11:12;;;;;;;2.85;2.65;;;8.70;92.40;;;;;;5003800;28;20241;-72
2021/04/13 08:14:17;;;;;;;1.10;1.10;;;8.40;92.90;;;;;;5001599;28;20201;-74
2021/04/13 08:16:45;;;;;;;1.70;1.60;;;8.40;93.50;;;;;;5004689;28;20412;-75
2021/04/13 08:19:32;;;;;;;4.80;3.58;;;8.30;92.00;;;;;;4999302;28;20224;-72
2021/04/13 08:22:17;;;;;;;1.98;1.88;;;8.10;93.40;;;;;;5000063;28;20223;-72
2021/04/13 08:24:50;;;;;;;1.80;1.65;;;8.70;92.40;;;;;;4972061;28;20228;-72
2021/04/13 08:27:21;;;;;;;3.22;1.92;;;9.30;92.00;;;;;;4981862;28;20219;-71
2021/04/13 08:30:07;;;;;;;2.08;1.90;;;9.60;90.90;;;;;;4991951;28;20217;-71
2021/04/13 08:33:08;;;;;;;2.10;1.65;;;9.60;91.70;;;;;;4996010;28;20225;-71
2021/04/13 08:36:09;;;;;;;2.65;2.45;;;10.10;90.40;;;;;;4994956;28;20247;-71
2021/04/13 08:38:58;;;;;;;1.95;1.85;;;12.30;84.40;;;;;;4978890;28;20208;-72
2021/04/13 08:41:36;;;;;;;3.53;2.78;;;14.20;75.10;;;;;;4999105;28;20212;-72
2021/04/13 08:44:09;;;;;;;2.20;2.10;;;15.70;65.20;;;;;;4990754;28;20206;-74
2021/04/13 08:46:53;;;;;;;3.28;3.05;;;16.60;57.70;;;;;;4981561;28;20213;-70
2021/04/13 08:49:40;;;;;;;4.22;3.92;;;16.40;61.00;;;;;;4982685;28;20212;-73
2021/04/13 08:52:15;;;;;;;4.43;4.13;;;16.30;59.80;;;;;;4996151;28;20598;-72
2021/04/13 08:54:48;;;;;;;3.90;3.70;;;17.20;57.30;;;;;;4999169;28;20241;-71
2021/04/13 08:57:18;;;;;;;4.38;4.13;;;17.40;53.70;;;;;;5006854;28;20494;-72
2021/04/13 08:59:52;;;;;;;3.25;3.08;;;16.50;57.20;;;;;;4984942;28;20240;-71
2021/04/13 09:02:38;;;;;;;4.07;3.78;;;15.90;60.60;;;;;;4964427;28;20417;-74
2021/04/13 09:05:13;;;;;;;3.00;2.90;;;15.30;59.60;;;;;;4982008;28;20269;-72
2021/04/13 09:07:46;;;;;;;3.63;3.42;;;14.50;61.90;;;;;;4978381;28;20295;-73
2021/04/13 09:10:24;;;;;;;3.58;3.28;;;13.80;67.90;;;;;;4981028;28;20222;-72
2021/04/13 09:13:04;;;;;;;2.80;2.60;;;13.80;68.20;;;;;;5006997;28;20209;-72
2021/04/13 09:15:32;;;;;;;4.03;3.78;;;13.80;70.90;;;;;;4987609;28;20230;-71
2021/04/13 09:18:14;;;;;;;3.45;3.25;;;13.30;68.70;;;;;;5003050;28;20264;-72
2021/04/13 09:20:47;;;;;;;2.78;2.67;;;13.20;68.80;;;;;;5004988;28;20248;-72
2021/04/13 09:23:24;;;;;;;3.17;2.85;;;13.10;70.30;;;;;;5003153;28;20272;-71
2021/04/13 09:25:51;;;;;;;2.88;2.67;;;13.00;72.80;;;;;;4978727;28;20376;-70
2021/04/13 09:28:41;;;;;;;2.90;2.70;;;12.80;70.90;;;;;;5000098;28;20513;-71
2021/04/13 09:31:18;;;;;;;6.15;3.10;;;12.30;71.60;;;;;;5001407;28;20197;-72
2021/04/13 09:33:45;;;;;;;3.10;2.92;;;12.20;72.30;;;;;;4990827;28;20449;-71
2021/04/13 09:36:29;;;;;;;2.60;2.50;;;12.50;72.10;;;;;;4992781;28;20233;-72
2021/04/13 09:39:24;;;;;;;3.13;3.03;;;12.80;69.00;;;;;;4995336;28;20564;-71
2021/04/13 09:42:05;;;;;;;3.28;3.15;;;13.30;70.50;;;;;;4993997;28;20562;-70
2021/04/13 09:44:54;;;;;;;3.10;2.97;;;13.30;66.00;;;;;;5001427;28;20208;-71
2021/04/13 09:47:37;;;;;;;2.85;2.75;;;13.30;65.60;;;;;;4986852;28;20514;-71
2021/04/13 09:50:34;;;;;;;2.33;2.22;;;12.50;67.10;;;;;;4983811;28;20443;-69
2021/04/13 09:53:16;;;;;;;2.60;2.50;;;12.10;71.00;;;;;;4979239;28;20209;-71
2021/04/13 09:56:01;;;;;;;3.60;3.40;;;11.60;70.30;;;;;;4979614;28;20224;-72
2021/04/13 09:58:31;;;;;;;2.75;2.65;;;11.50;69.90;;;;;;4993877;28;20276;-72
2021/04/13 10:01:22;;;;;;;2.90;2.70;;;11.10;71.00;;;;;;4987310;28;20263;-72
2021/04/13 10:03:57;;;;;;;2.55;2.45;;;11.00;73.90;;;;;;4998093;28;20445;-69
2021/04/13 10:06:34;;;;;;;2.50;2.40;;;10.80;73.70;;;;;;4998666;28;20244;-70
2021/04/13 10:09:22;;;;;;;2.97;2.53;;;10.80;73.50;;;;;;4993368;28;20459;-70
2021/04/13 10:11:57;;;;;;;2.05;1.95;;;10.30;75.70;;;;;;4988372;28;20712;-72
2021/04/13 10:15:01;;;;;;;1.80;1.80;;;10.50;74.60;;;;;;4983691;28;20539;-70
2021/04/13 10:17:57;;;;;;;1.40;1.40;;;10.30;76.30;;;;;;4990546;28;20532;-74
2021/04/13 10:20:49;;;;;;;1.80;1.70;;;9.90;79.70;;;;;;4980184;28;20212;-71
2021/04/13 10:23:25;;;;;;;1.60;1.50;;;9.80;84.10;;;;;;4976253;28;20221;-70
2021/04/13 10:26:16;;;;;;;1.63;1.52;;;9.90;84.00;;;;;;4997626;28;20215;-71
2021/04/13 10:28:45;;;;;;;1.50;1.50;;;10.20;81.40;;;;;;4977128;28;20213;-70
2021/04/13 10:31:42;;;;;;;2.15;2.05;;;10.40;78.30;;;;;;4992974;28;20207;-69
2021/04/13 10:34:23;;;;;;;2.58;2.47;;;10.80;75.70;;;;;;4978745;28;20249;-72
2021/04/13 10:37:28;;;;;;;2.45;2.35;;;11.10;74.80;;;;;;5004467;28;20255;-71
2021/04/13 10:40:03;;;;;;;2.63;2.53;;;11.60;72.80;;;;;;4997842;28;20410;-72
2021/04/13 10:42:41;;;;;;;2.50;2.40;;;11.70;71.20;;;;;;4997300;28;20242;-69
2021/04/13 10:45:44;;;;;;;2.10;2.10;;;11.40;72.80;;;;;;4982547;28;20204;-72
2021/04/13 10:48:55;;;;;;;2.60;2.50;;;10.90;75.30;;;;;;4977797;28;20210;-70
2021/04/13 10:51:56;;;;;;;1.90;1.80;;;9.70;80.10;;;;;;4982191;28;20236;-69
2021/04/13 10:54:38;;;;;;;1.30;1.30;;;9.00;82.60;;;;;;4997453;28;20518;-71
2021/04/13 10:57:29;;;;;;;1.58;1.52;;;8.70;85.20;;;;;;4997563;28;20425;-69
2021/04/13 11:00:02;;;;;;;1.50;1.50;;;8.40;83.80;;;;;;4997276;28;20498;-70
2021/04/13 11:03:05;;;;;;;1.35;1.35;;;8.60;82.70;;;;;;5004189;28;20276;-70
2021/04/13 11:06:10;;;;;;;2.55;1.65;;;9.10;81.40;;;;;;4999080;28;20249;-69
2021/04/13 11:09:08;;;;;;;1.60;1.60;;;9.70;78.10;;;;;;4998580;28;20326;-69
2021/04/13 11:11:38;;;;;;;1.98;1.98;;;10.00;73.00;;;;;;5004949;28;20511;-70
2021/04/13 11:14:25;;;;;;;2.60;2.50;;;10.40;71.90;;;;;;5001503;28;20215;-72
2021/04/13 11:16:54;;;;;;;2.10;2.00;;;10.70;65.60;;;;;;4986882;28;20239;-71
2021/04/13 11:19:36;;;;;;;1.73;1.73;;;10.30;63.70;;;;;;5010462;28;20208;-71
2021/04/13 11:22:38;;;;;;;2.08;2.05;;;10.30;67.20;;;;;;4980960;28;20529;-70
2021/04/13 11:25:11;;;;;;;2.03;1.92;;;10.30;65.80;;;;;;5001212;28;20203;-72
2021/04/13 11:28:08;;;;;;;2.53;2.45;;;10.30;65.30;;;;;;5004462;28;20501;-70
2021/04/13 11:31:11;;;;;;;2.15;2.05;;;10.30;67.20;;;;;;4998983;28;20214;-69
2021/04/13 11:34:05;;;;;;;2.10;2.10;;;10.70;62.80;;;;;;4998283;28;20239;-71
2021/04/13 11:36:35;;;;;;;2.40;2.30;;;10.70;59.50;;;;;;4988970;28;20474;-70
2021/04/13 11:39:16;;;;;;;2.60;2.50;;;10.60;61.90;;;;;;5006513;28;20208;-70
2021/04/13 11:42:08;;;;;;;2.40;2.30;;;10.90;62.30;;;;;;5003665;28;20211;-71
2021/04/13 11:45:07;;;;;;;2.65;2.55;;;11.40;60.00;;;;;;4998542;28;20303;-70
2021/04/13 11:47:50;;;;;;;2.50;2.40;;;11.40;59.60;;;;;;5001088;28;20278;-70
2021/04/13 11:50:29;;;;;;;2.38;2.28;;;11.80;61.70;;;;;;4999767;28;20427;-71
2021/04/13 11:53:09;;;;;;;3.20;3.00;;;12.20;58.70;;;;;;5000274;28;20201;-69
2021/04/13 11:55:48;;;;;;;2.40;2.40;;;12.40;56.70;;;;;;5000246;28;20224;-70
2021/04/13 11:58:22;;;;;;;2.70;2.60;;;12.70;55.40;;;;;;5000424;28;20247;-70
2021/04/13 12:00:53;;;;;;;2.50;2.40;;;12.60;56.30;;;;;;4987958;28;20209;-70
2021/04/13 12:03:28;;;;;;;2.55;2.45;;;12.50;56.70;;;;;;5012337;28;20216;-70
2021/04/13 12:06:05;;;;;;;2.20;2.20;;;12.50;57.20;;;;;;4988004;28;20514;-69
2021/04/13 12:08:36;;;;;;;2.60;2.50;;;12.90;58.00;;;;;;5000083;28;20267;-70
2021/04/13 12:11:05;;;;;;;2.50;2.40;;;12.60;55.50;;;;;;4995812;28;20253;-71
2021/04/13 12:13:49;;;;;;;2.20;2.20;;;12.20;54.40;;;;;;4994978;28;20543;-69
2021/04/13 12:16:19;;;;;;;2.70;2.60;;;12.10;57.60;;;;;;4978490;28;20475;-70
2021/04/13 12:19:07;;;;;;;2.60;2.50;;;12.10;57.40;;;;;;4986123;28;20210;-69
2021/04/13 12:21:55;;;;;;;2.42;2.33;;;12.00;56.70;;;;;;4994415;28;20587;-69
2021/04/13 12:24:38;;;;;;;3.22;2.92;;;11.70;55.90;;;;;;4999067;28;20495;-69
2021/04/13 12:27:26;;;;;;;2.50;2.40;;;11.40;55.00;;;;;;4988515;28;20214;-69
2021/04/13 12:30:24;;;;;;;2.90;2.80;;;11.50;54.50;;;;;;4994897;28;20213;-69
2021/04/13 12:32:52;;;;;;;2.30;2.30;;;11.70;54.60;;;;;;4997819;28;20239;-71
2021/04/13 12:35:50;;;;;;;3.10;3.00;;;11.10;55.10;;;;;;5001807;28;20252;-69
2021/04/13 12:38:43;;;;;;;2.30;2.20;;;10.60;58.30;;;;;;4999007;28;20212;-70
2021/04/13 12:41:22;;;;;;;2.30;2.30;;;10.50;56.00;;;;;;4996737;28;20215;-69
2021/04/13 12:44:22;;;;;;;2.60;2.50;;;10.60;58.20;;;;;;4993659;28;20216;-70
2021/04/13 12:46:54;;;;;;;3.10;2.95;;;10.40;57.20;;;;;;4991997;28;20204;-69
2021/04/13 12:49:42;;;;;;;2.72;2.63;;;10.50;56.40;;;;;;4999480;28;20216;-69
2021/04/13 12:52:14;;;;;;;2.72;2.65;;;10.70;56.40;;;;;;5012581;28;20616;-69
2021/04/13 12:54:45;;;;;;;2.85;2.75;;;10.80;54.80;;;;;;5011252;28;20211;-70
2021/04/13 12:57:13;;;;;;;2.78;2.67;;;11.00;55.10;;;;;;5004810;28;20569;-70
2021/04/13 12:59:40;;;;;;;3.63;3.53;;;11.10;53.90;;;;;;5007163;28;20537;-69
2021/04/13 13:02:34;;;;;;;2.30;2.30;;;11.10;51.70;;;;;;5002281;28;20423;-70
2021/04/13 13:05:03;;;;;;;2.40;2.40;;;11.10;53.60;;;;;;4975273;28;20564;-70
2021/04/13 13:07:31;;;;;;;2.67;2.58;;;11.40;53.80;;;;;;4986110;28;20232;-70
2021/04/13 13:10:09;;;;;;;2.45;2.35;;;11.50;52.50;;;;;;4999919;28;20259;-70
2021/04/13 13:12:38;;;;;;;2.30;2.30;;;11.30;51.90;;;;;;4968551;28;20227;-71
2021/04/13 13:15:12;;;;;;;2.42;2.42;;;10.90;51.20;;;;;;4998532;28;20340;-69
2021/04/13 13:17:43;;;;;;;2.83;2.75;;;10.90;54.30;;;;;;4994253;28;20212;-69
2021/04/13 13:20:30;;;;;;;2.90;2.80;;;10.90;52.40;;;;;;4998851;28;20242;-70
2021/04/13 13:22:57;;;;;;;2.10;2.10;;;11.00;52.80;;;;;;4986520;28;20292;-72
2021/04/13 13:25:35;;;;;;;3.28;3.17;;;11.00;54.30;;;;;;4973952;28;20531;-70
2021/04/13 13:28:20;;;;;;;2.90;2.80;;;10.70;54.80;;;;;;4996689;28;20242;-68
2021/04/13 13:30:49;;;;;;;2.78;2.67;;;10.50;56.20;;;;;;4975768;28;20211;-69
2021/04/13 13:33:18;;;;;;;2.70;2.60;;;10.80;55.80;;;;;;4986799;28;20223;-68
2021/04/13 13:35:46;;;;;;;2.90;2.80;;;11.20;55.50;;;;;;4981506;28;20566;-69
2021/04/13 13:38:19;;;;;;;2.40;2.40;;;11.60;54.00;;;;;;5004183;28;20209;-70
2021/04/13 13:40:47;;;;;;;2.55;2.55;;;11.60;52.90;;;;;;5010137;28;20212;-69
2021/04/13 13:43:22;;;;;;;3.00;2.90;;;11.50;52.30;;;;;;5001868;28;20209;-69
2021/04/13 13:45:50;;;;;;;2.80;2.70;;;11.60;52.80;;;;;;4996778;28;20219;-71
2021/04/13 13:48:26;;;;;;;2.60;2.50;;;11.70;51.60;;;;;;4986716;28;20575;-69